sensor_id;sensor_type;location;lat;lon;timestamp;P1;durP1;ratioP1;P2;durP2;ratioP2
5827;SDS011;42583;50.240;8.444;2022-10-17T00:07:03;4.28;;;2.40;;
5827;SDS011;42583;50.240;8.444;2022-10-17T00:22:03;5.63;;;2.58;;
5827;SDS011;42583;50.240;8.444;2022-10-17T00:37:04;7.38;;;2.63;;
5827;SDS011;42583;50.240;8.444;2022-10-17T00:52:08;7.15;;;2.72;;
5827;SDS011;42583;50.240;8.444;2022-10-17T01:07:13;5.07;;;1.92;;
5827;SDS011;42583;50.240;8.444;2022-10-17T01:22:18;7.72;;;2.40;;
5827;SDS011;42583;50.240;8.444;2022-10-17T01:52:49;4.68;;;2.17;;
5827;SDS011;42583;50.240;8.444;2022-10-17T02:07:52;4.55;;;2.17;;
5827;SDS011;42583;50.240;8.444;2022-10-17T02:22:55;3.55;;;2.03;;
5827;SDS011;42583;50.240;8.444;2022-10-17T02:38:02;6.57;;;2.35;;
5827;SDS011;42583;50.240;8.444;2022-10-17T02:53:08;6.13;;;2.60;;
5827;SDS011;42583;50.240;8.444;2022-10-17T03:08:13;6.63;;;2.30;;
5827;SDS011;42583;50.240;8.444;2022-10-17T03:23:13;5.38;;;2.30;;
5827;SDS011;42583;50.240;8.444;2022-10-17T03:38:14;7.95;;;2.60;;
5827;SDS011;42583;50.240;8.444;2022-10-17T03:53:14;5.28;;;2.55;;
5827;SDS011;42583;50.240;8.444;2022-10-17T04:08:15;6.88;;;2.30;;
5827;SDS011;42583;50.240;8.444;2022-10-17T04:23:16;6.68;;;2.67;;
5827;SDS011;42583;50.240;8.444;2022-10-17T04:38:17;6.82;;;2.83;;
5827;SDS011;42583;50.240;8.444;2022-10-17T04:53:17;7.32;;;2.88;;
5827;SDS011;42583;50.240;8.444;2022-10-17T05:08:18;7.93;;;3.05;;
5827;SDS011;42583;50.240;8.444;2022-10-17T05:23:18;6.32;;;2.92;;
5827;SDS011;42583;50.240;8.444;2022-10-17T05:38:19;5.68;;;2.90;;
5827;SDS011;42583;50.240;8.444;2022-10-17T05:53:19;5.43;;;2.95;;
5827;SDS011;42583;50.240;8.444;2022-10-17T06:08:20;5.40;;;2.72;;
5827;SDS011;42583;50.240;8.444;2022-10-17T06:23:21;6.57;;;2.80;;
5827;SDS011;42583;50.240;8.444;2022-10-17T06:38:21;7.28;;;2.72;;
5827;SDS011;42583;50.240;8.444;2022-10-17T06:53:22;7.68;;;2.60;;
5827;SDS011;42583;50.240;8.444;2022-10-17T07:08:24;5.28;;;2.28;;
5827;SDS011;42583;50.240;8.444;2022-10-17T07:23:25;4.28;;;1.90;;
5827;SDS011;42583;50.240;8.444;2022-10-17T07:38:26;4.60;;;2.30;;
5827;SDS011;42583;50.240;8.444;2022-10-17T07:53:27;5.95;;;1.92;;
5827;SDS011;42583;50.240;8.444;2022-10-17T08:08:28;6.70;;;2.20;;
5827;SDS011;42583;50.240;8.444;2022-10-17T08:23:28;6.28;;;2.10;;
5827;SDS011;42583;50.240;8.444;2022-10-17T08:38:29;5.35;;;1.98;;
5827;SDS011;42583;50.240;8.444;2022-10-17T08:53:35;6.80;;;1.65;;
5827;SDS011;42583;50.240;8.444;2022-10-17T09:39:42;6.50;;;1.70;;
5827;SDS011;42583;50.240;8.444;2022-10-17T09:54:44;9.37;;;1.87;;
5827;SDS011;42583;50.240;8.444;2022-10-17T10:09:50;5.03;;;1.70;;
5827;SDS011;42583;50.240;8.444;2022-10-17T10:25:09;6.33;;;1.70;;
5827;SDS011;42583;50.240;8.444;2022-10-17T10:40:15;3.85;;;1.70;;
5827;SDS011;42583;50.240;8.444;2022-10-17T10:55:25;4.63;;;2.13;;
5827;SDS011;42583;50.240;8.444;2022-10-17T11:25:58;4.13;;;1.60;;
5827;SDS011;42583;50.240;8.444;2022-10-17T11:41:04;4.35;;;1.80;;
5827;SDS011;42583;50.240;8.444;2022-10-17T11:56:07;3.95;;;1.88;;
5827;SDS011;42583;50.240;8.444;2022-10-17T12:11:28;7.03;;;1.90;;
5827;SDS011;42583;50.240;8.444;2022-10-17T12:26:33;6.47;;;1.90;;
5827;SDS011;42583;50.240;8.444;2022-10-17T12:56:38;9.27;;;2.22;;
5827;SDS011;42583;50.240;8.444;2022-10-17T13:11:41;4.68;;;1.80;;
5827;SDS011;42583;50.240;8.444;2022-10-17T13:26:44;5.95;;;1.88;;
5827;SDS011;42583;50.240;8.444;2022-10-17T13:42:27;4.60;;;1.70;;
5827;SDS011;42583;50.240;8.444;2022-10-17T13:57:29;6.93;;;1.70;;
5827;SDS011;42583;50.240;8.444;2022-10-17T14:12:30;4.65;;;1.60;;
5827;SDS011;42583;50.240;8.444;2022-10-17T14:27:34;7.95;;;1.90;;
5827;SDS011;42583;50.240;8.444;2022-10-17T14:42:38;7.15;;;2.10;;
5827;SDS011;42583;50.240;8.444;2022-10-17T14:57:40;6.13;;;2.33;;
5827;SDS011;42583;50.240;8.444;2022-10-17T15:12:42;4.53;;;2.03;;
5827;SDS011;42583;50.240;8.444;2022-10-17T15:27:43;5.25;;;1.73;;
5827;SDS011;42583;50.240;8.444;2022-10-17T15:42:43;5.82;;;1.60;;
5827;SDS011;42583;50.240;8.444;2022-10-17T15:57:45;6.20;;;2.10;;
5827;SDS011;42583;50.240;8.444;2022-10-17T16:12:46;5.47;;;2.20;;
5827;SDS011;42583;50.240;8.444;2022-10-17T16:27:50;6.60;;;2.10;;
5827;SDS011;42583;50.240;8.444;2022-10-17T16:42:51;7.60;;;2.23;;
5827;SDS011;42583;50.240;8.444;2022-10-17T16:57:52;8.07;;;2.30;;
5827;SDS011;42583;50.240;8.444;2022-10-17T17:12:52;7.28;;;2.10;;
5827;SDS011;42583;50.240;8.444;2022-10-17T17:27:53;9.07;;;2.15;;
5827;SDS011;42583;50.240;8.444;2022-10-17T17:42:53;11.00;;;1.90;;
5827;SDS011;42583;50.240;8.444;2022-10-17T17:57:54;8.98;;;2.40;;
5827;SDS011;42583;50.240;8.444;2022-10-17T18:12:55;8.77;;;2.10;;
5827;SDS011;42583;50.240;8.444;2022-10-17T18:27:56;10.82;;;2.60;;
5827;SDS011;42583;50.240;8.444;2022-10-17T18:42:56;9.73;;;2.13;;
5827;SDS011;42583;50.240;8.444;2022-10-17T18:57:57;6.95;;;1.98;;
5827;SDS011;42583;50.240;8.444;2022-10-17T19:12:59;8.55;;;2.00;;
5827;SDS011;42583;50.240;8.444;2022-10-17T19:28:00;7.20;;;2.08;;
5827;SDS011;42583;50.240;8.444;2022-10-17T19:43:00;9.88;;;2.03;;
5827;SDS011;42583;50.240;8.444;2022-10-17T19:58:01;8.63;;;2.35;;
5827;SDS011;42583;50.240;8.444;2022-10-17T20:13:02;9.57;;;2.58;;
5827;SDS011;42583;50.240;8.444;2022-10-17T20:28:03;9.30;;;2.28;;
5827;SDS011;42583;50.240;8.444;2022-10-17T20:43:04;4.35;;;1.90;;
5827;SDS011;42583;50.240;8.444;2022-10-17T20:58:06;10.60;;;2.60;;
5827;SDS011;42583;50.240;8.444;2022-10-17T21:13:08;9.55;;;2.70;;
5827;SDS011;42583;50.240;8.444;2022-10-17T21:28:09;8.68;;;2.60;;
5827;SDS011;42583;50.240;8.444;2022-10-17T21:43:09;7.53;;;2.35;;
5827;SDS011;42583;50.240;8.444;2022-10-17T21:58:10;9.80;;;2.55;;
5827;SDS011;42583;50.240;8.444;2022-10-17T22:13:10;7.43;;;2.67;;
5827;SDS011;42583;50.240;8.444;2022-10-17T22:28:11;9.90;;;2.60;;
5827;SDS011;42583;50.240;8.444;2022-10-17T22:43:12;8.77;;;2.70;;
5827;SDS011;42583;50.240;8.444;2022-10-17T22:58:12;7.85;;;3.30;;
5827;SDS011;42583;50.240;8.444;2022-10-17T23:13:13;7.07;;;2.50;;
5827;SDS011;42583;50.240;8.444;2022-10-17T23:28:14;11.77;;;2.97;;
5827;SDS011;42583;50.240;8.444;2022-10-17T23:43:15;11.85;;;2.97;;
5827;SDS011;42583;50.240;8.444;2022-10-17T23:58:15;10.55;;;2.85;;
